sensor_id;sensor_type;location;lat;lon;timestamp;P1;P2;P0
76330;PMS7003;65148;51.912;15.570;2022-12-29T00:08:16;6;6;5
76330;PMS7003;65148;51.912;15.570;2022-12-29T00:23:17;4;4;3
76330;PMS7003;65148;51.912;15.570;2022-12-29T00:38:44;4;4;3
76330;PMS7003;65148;51.912;15.570;2022-12-29T00:54:03;4;3;2
76330;PMS7003;65148;51.912;15.570;2022-12-29T01:09:04;4;4;4
76330;PMS7003;65148;51.912;15.570;2022-12-29T01:24:30;5;1;1
76330;PMS7003;65148;51.912;15.570;2022-12-29T01:39:30;6;5;4
76330;PMS7003;65148;51.912;15.570;2022-12-29T01:54:38;4;4;3
76330;PMS7003;65148;51.912;15.570;2022-12-29T02:10:10;4;4;3
76330;PMS7003;65148;51.912;15.570;2022-12-29T02:25:15;5;4;3
76330;PMS7003;65148;51.912;15.570;2022-12-29T02:40:24;4;3;3
76330;PMS7003;65148;51.912;15.570;2022-12-29T02:55:51;6;4;4
76330;PMS7003;65148;51.912;15.570;2022-12-29T03:26:04;5;4;4
76330;PMS7003;65148;51.912;15.570;2022-12-29T03:41:31;4;3;3
76330;PMS7003;65148;51.912;15.570;2022-12-29T03:56:34;4;4;3
76330;PMS7003;65148;51.912;15.570;2022-12-29T04:11:35;6;4;3
76330;PMS7003;65148;51.912;15.570;2022-12-29T04:26:36;5;3;2
76330;PMS7003;65148;51.912;15.570;2022-12-29T04:41:56;5;3;2
76330;PMS7003;65148;51.912;15.570;2022-12-29T04:56:57;3;3;3
76330;PMS7003;65148;51.912;15.570;2022-12-29T05:11:58;4;3;2
76330;PMS7003;65148;51.912;15.570;2022-12-29T05:26:58;3;3;2
76330;PMS7003;65148;51.912;15.570;2022-12-29T05:42:20;3;3;1
76330;PMS7003;65148;51.912;15.570;2022-12-29T05:57:21;1;1;1
76330;PMS7003;65148;51.912;15.570;2022-12-29T06:12:22;2;2;2
76330;PMS7003;65148;51.912;15.570;2022-12-29T06:27:23;3;3;2
76330;PMS7003;65148;51.912;15.570;2022-12-29T06:42:44;4;4;2
76330;PMS7003;65148;51.912;15.570;2022-12-29T06:57:44;4;3;3
76330;PMS7003;65148;51.912;15.570;2022-12-29T07:12:45;5;4;3
76330;PMS7003;65148;51.912;15.570;2022-12-29T07:27:46;5;4;3
76330;PMS7003;65148;51.912;15.570;2022-12-29T07:43:08;2;2;1
76330;PMS7003;65148;51.912;15.570;2022-12-29T07:58:09;3;3;2
76330;PMS7003;65148;51.912;15.570;2022-12-29T08:13:10;2;2;1
76330;PMS7003;65148;51.912;15.570;2022-12-29T08:28:12;3;3;2
76330;PMS7003;65148;51.912;15.570;2022-12-29T08:43:32;4;2;2
76330;PMS7003;65148;51.912;15.570;2022-12-29T08:58:33;2;1;1
76330;PMS7003;65148;51.912;15.570;2022-12-29T09:13:34;2;2;1
76330;PMS7003;65148;51.912;15.570;2022-12-29T09:28:35;3;3;2
76330;PMS7003;65148;51.912;15.570;2022-12-29T09:44:16;3;1;1
76330;PMS7003;65148;51.912;15.570;2022-12-29T09:59:13;2;1;1
76330;PMS7003;65148;51.912;15.570;2022-12-29T10:29:48;4;1;1
76330;PMS7003;65148;51.912;15.570;2022-12-29T10:44:54;4;4;4
76330;PMS7003;65148;51.912;15.570;2022-12-29T10:59:57;4;1;1
76330;PMS7003;65148;51.912;15.570;2022-12-29T11:15:25;6;5;4
76330;PMS7003;65148;51.912;15.570;2022-12-29T11:30:28;2;2;1
76330;PMS7003;65148;51.912;15.570;2022-12-29T11:45:32;1;1;1
76330;PMS7003;65148;51.912;15.570;2022-12-29T12:00:36;2;2;2
76330;PMS7003;65148;51.912;15.570;2022-12-29T12:16:03;1;1;1
76330;PMS7003;65148;51.912;15.570;2022-12-29T12:31:06;2;1;1
76330;PMS7003;65148;51.912;15.570;2022-12-29T14:18:33;12;11;8
76330;PMS7003;65148;51.912;15.570;2022-12-29T14:33:41;14;10;7
76330;PMS7003;65148;51.912;15.570;2022-12-29T14:48:56;19;14;10
76330;PMS7003;65148;51.912;15.570;2022-12-29T15:04:23;7;5;4
76330;PMS7003;65148;51.912;15.570;2022-12-29T15:19:30;15;13;10
76330;PMS7003;65148;51.912;15.570;2022-12-29T15:34:31;32;30;21
76330;PMS7003;65148;51.912;15.570;2022-12-29T15:49:32;13;10;6
76330;PMS7003;65148;51.912;15.570;2022-12-29T16:04:46;9;7;5
76330;PMS7003;65148;51.912;15.570;2022-12-29T16:20:37;12;11;7
76330;PMS7003;65148;51.912;15.570;2022-12-29T16:50:27;7;7;5
76330;PMS7003;65148;51.912;15.570;2022-12-29T17:05:28;30;21;14
76330;PMS7003;65148;51.912;15.570;2022-12-29T17:20:30;14;13;9
76330;PMS7003;65148;51.912;15.570;2022-12-29T17:35:31;28;27;18
76330;PMS7003;65148;51.912;15.570;2022-12-29T17:50:52;31;23;15
76330;PMS7003;65148;51.912;15.570;2022-12-29T18:05:54;30;26;18
76330;PMS7003;65148;51.912;15.570;2022-12-29T18:20:55;13;12;9
76330;PMS7003;65148;51.912;15.570;2022-12-29T18:36:03;11;8;6
76330;PMS7003;65148;51.912;15.570;2022-12-29T18:51:21;17;16;12
76330;PMS7003;65148;51.912;15.570;2022-12-29T19:06:23;19;17;13
76330;PMS7003;65148;51.912;15.570;2022-12-29T19:21:24;62;50;32
76330;PMS7003;65148;51.912;15.570;2022-12-29T19:36:25;76;60;39
76330;PMS7003;65148;51.912;15.570;2022-12-29T19:51:43;56;46;32
76330;PMS7003;65148;51.912;15.570;2022-12-29T20:06:44;61;46;30
76330;PMS7003;65148;51.912;15.570;2022-12-29T20:21:45;85;67;42
76330;PMS7003;65148;51.912;15.570;2022-12-29T20:36:48;84;63;39
76330;PMS7003;65148;51.912;15.570;2022-12-29T20:52:12;77;60;35
76330;PMS7003;65148;51.912;15.570;2022-12-29T21:07:12;49;40;26
76330;PMS7003;65148;51.912;15.570;2022-12-29T21:22:13;19;17;13
76330;PMS7003;65148;51.912;15.570;2022-12-29T21:37:14;5;2;1
76330;PMS7003;65148;51.912;15.570;2022-12-29T21:52:38;2;1;0
76330;PMS7003;65148;51.912;15.570;2022-12-29T22:07:39;6;4;2
76330;PMS7003;65148;51.912;15.570;2022-12-29T22:22:52;4;4;2
76330;PMS7003;65148;51.912;15.570;2022-12-29T22:38:16;7;5;4
76330;PMS7003;65148;51.912;15.570;2022-12-29T22:53:18;28;25;17
76330;PMS7003;65148;51.912;15.570;2022-12-29T23:08:19;9;9;7
76330;PMS7003;65148;51.912;15.570;2022-12-29T23:23:19;12;8;6
76330;PMS7003;65148;51.912;15.570;2022-12-29T23:38:45;47;35;25
76330;PMS7003;65148;51.912;15.570;2022-12-29T23:53:47;67;49;27
